createdAt,value
2023-04-20T00:00:08.206Z,89
2023-04-20T00:01:08.598Z,89
2023-04-20T00:02:09.220Z,89
2023-04-20T00:03:09.602Z,89
2023-04-20T00:04:08.683Z,89
2023-04-20T00:11:08.258Z,89
2023-04-20T00:12:08.524Z,89
2023-04-20T00:13:08.960Z,89
2023-04-20T00:15:08.714Z,89
2023-04-20T00:16:08.615Z,89
2023-04-20T00:17:09.025Z,89
2023-04-20T00:18:09.278Z,89
2023-04-20T00:19:08.374Z,89
2023-04-20T00:20:08.609Z,89
2023-04-20T00:21:08.262Z,89
2023-04-20T00:22:08.516Z,89
2023-04-20T00:23:08.750Z,89
2023-04-20T00:24:08.812Z,89
2023-04-20T00:25:09.520Z,89
2023-04-20T00:26:08.180Z,89
2023-04-20T00:27:08.786Z,89
2023-04-20T00:30:08.391Z,89
2023-04-20T00:31:08.904Z,89
2023-04-20T00:32:08.444Z,89
2023-04-20T00:33:08.942Z,89
2023-04-20T00:34:07.800Z,89
2023-04-20T00:35:09.202Z,89
2023-04-20T00:36:08.254Z,89
2023-04-20T00:37:09.036Z,89
2023-04-20T00:38:08.784Z,89
2023-04-20T00:39:08.201Z,89
2023-04-20T00:40:08.368Z,89
2023-04-20T00:41:08.795Z,89
2023-04-20T00:42:09.024Z,89
2023-04-20T00:44:08.179Z,89
2023-04-20T00:45:08.780Z,89
2023-04-20T00:46:08.456Z,89
2023-04-20T00:47:08.580Z,89
2023-04-20T00:48:08.706Z,89
2023-04-20T00:49:08.883Z,89
2023-04-20T00:50:08.166Z,89
2023-04-20T00:51:08.245Z,89
2023-04-20T00:52:08.538Z,89
2023-04-20T00:53:08.723Z,89
2023-04-20T00:54:08.722Z,89
2023-04-20T00:55:08.185Z,89
2023-04-20T00:56:08.281Z,89
2023-04-20T00:57:08.593Z,89
2023-04-20T00:58:08.089Z,89
2023-04-20T00:59:08.296Z,89
2023-04-20T01:00:08.846Z,89
2023-04-20T01:04:08.421Z,89
2023-04-20T01:05:08.206Z,89
2023-04-20T01:06:08.737Z,89
2023-04-20T01:07:09.137Z,89
2023-04-20T01:08:09.053Z,89
2023-04-20T01:09:08.071Z,89
2023-04-20T01:10:08.518Z,89
2023-04-20T01:11:09.019Z,89
2023-04-20T01:12:08.180Z,89
2023-04-20T01:16:08.441Z,89
2023-04-20T01:17:08.583Z,89
2023-04-20T01:18:08.821Z,89
2023-04-20T01:21:08.324Z,89
2023-04-20T01:22:08.625Z,89
2023-04-20T01:23:08.866Z,89
2023-04-20T01:24:08.128Z,89
2023-04-20T01:25:08.480Z,89
2023-04-20T01:26:08.725Z,89
2023-04-20T01:27:09.054Z,89
2023-04-20T01:28:08.204Z,89
2023-04-20T01:29:08.583Z,89
2023-04-20T01:30:09.057Z,89
2023-04-20T01:31:08.324Z,89
2023-04-20T01:32:08.447Z,89
2023-04-20T01:33:09.020Z,89
2023-04-20T01:34:08.690Z,89
2023-04-20T01:35:08.324Z,89
2023-04-20T01:36:08.422Z,89
2023-04-20T01:37:08.796Z,89
2023-04-20T01:38:08.920Z,89
2023-04-20T01:39:08.447Z,89
2023-04-20T01:40:08.596Z,89
2023-04-20T01:41:08.855Z,89
2023-04-20T01:43:08.192Z,89
2023-04-20T01:44:08.225Z,89
2023-04-20T01:48:08.605Z,89
2023-04-20T01:49:08.815Z,89
2023-04-20T01:50:08.281Z,89
2023-04-20T01:51:08.509Z,89
2023-04-20T01:52:08.804Z,89
2023-04-20T01:53:09.122Z,89
2023-04-20T01:54:08.130Z,89
2023-04-20T01:55:08.380Z,89
2023-04-20T01:56:08.505Z,89
2023-04-20T01:57:08.851Z,89
2023-04-20T01:58:08.171Z,89
2023-04-20T01:59:08.313Z,89
2023-04-20T02:00:08.757Z,89
2023-04-20T02:01:09.141Z,89
2023-04-20T02:02:08.417Z,89
2023-04-20T02:03:09.281Z,89
2023-04-20T02:06:08.363Z,89
2023-04-20T02:07:08.519Z,89
2023-04-20T02:08:08.865Z,89
2023-04-20T02:09:08.332Z,89
2023-04-20T02:10:08.526Z,89
2023-04-20T02:11:08.909Z,89
2023-04-20T02:12:09.058Z,89
2023-04-20T02:13:08.179Z,89
2023-04-20T02:14:08.465Z,89
2023-04-20T02:15:08.965Z,89
2023-04-20T02:16:08.232Z,89
2023-04-20T02:17:08.405Z,89
2023-04-20T02:18:08.564Z,89
2023-04-20T02:19:08.921Z,89
2023-04-20T02:20:08.128Z,89
2023-04-20T02:21:08.413Z,89
2023-04-20T02:22:08.513Z,89
2023-04-20T02:23:08.756Z,89
2023-04-20T02:24:09.117Z,89
2023-04-20T02:25:08.387Z,89
2023-04-20T02:26:08.874Z,89
2023-04-20T02:27:07.889Z,89
2023-04-20T02:28:08.549Z,89
2023-04-20T02:29:08.697Z,89
2023-04-20T02:30:09.008Z,89
2023-04-20T02:34:08.218Z,89
2023-04-20T02:35:08.696Z,89
2023-04-20T02:36:08.816Z,89
2023-04-20T02:37:08.733Z,89
2023-04-20T02:38:08.347Z,89
2023-04-20T02:41:08.177Z,89
2023-04-20T02:42:08.384Z,89
2023-04-20T02:43:08.583Z,89
2023-04-20T02:44:08.924Z,89
2023-04-20T02:45:08.158Z,89
2023-04-20T02:46:08.580Z,89
2023-04-20T02:47:08.666Z,89
2023-04-20T02:48:08.966Z,90
2023-04-20T02:49:08.760Z,90
2023-04-20T02:50:08.146Z,90
2023-04-20T02:53:07.946Z,90
2023-04-20T02:54:08.499Z,90
2023-04-20T02:55:08.715Z,90
2023-04-20T02:56:08.761Z,90
2023-04-20T02:57:09.104Z,90
2023-04-20T02:58:08.372Z,90
2023-04-20T02:59:08.588Z,90
2023-04-20T03:00:08.738Z,90
2023-04-20T03:01:08.860Z,90
2023-04-20T03:02:09.463Z,90
2023-04-20T03:03:08.917Z,90
2023-04-20T03:04:09.451Z,90
2023-04-20T03:05:09.177Z,90
2023-04-20T03:09:08.987Z,90
2023-04-20T03:10:08.092Z,90
2023-04-20T03:11:08.481Z,90
2023-04-20T03:12:08.446Z,90
2023-04-20T03:13:08.623Z,90
2023-04-20T03:14:08.803Z,90
2023-04-20T03:17:08.733Z,90
2023-04-20T03:18:09.291Z,90
2023-04-20T03:19:08.209Z,90
2023-04-20T03:20:08.670Z,90
2023-04-20T03:21:08.571Z,90
2023-04-20T03:22:08.985Z,90
2023-04-20T03:23:09.193Z,90
2023-04-20T03:24:08.377Z,90
2023-04-20T03:25:08.750Z,90
2023-04-20T03:26:08.901Z,90
2023-04-20T03:27:08.940Z,90
2023-04-20T03:32:08.307Z,90
2023-04-20T03:33:08.650Z,90
2023-04-20T03:34:08.763Z,90
2023-04-20T03:35:08.951Z,90
2023-04-20T03:36:08.257Z,90
2023-04-20T03:37:08.527Z,90
2023-04-20T03:38:08.863Z,90
2023-04-20T03:39:09.139Z,90
2023-04-20T03:40:08.524Z,90
2023-04-20T03:41:08.911Z,90
2023-04-20T03:42:08.949Z,90
2023-04-20T03:43:08.218Z,90
2023-04-20T03:44:08.375Z,90
2023-04-20T03:45:08.732Z,90
2023-04-20T03:46:09.185Z,90
2023-04-20T03:47:09.030Z,90
2023-04-20T03:48:08.292Z,90
2023-04-20T03:49:08.463Z,90
2023-04-20T03:50:08.928Z,90
2023-04-20T03:52:08.266Z,90
2023-04-20T03:53:08.442Z,90
2023-04-20T03:54:08.523Z,90
2023-04-20T03:55:09.094Z,90
2023-04-20T03:56:08.309Z,90
2023-04-20T03:57:08.569Z,90
2023-04-20T03:58:08.758Z,90
2023-04-20T03:59:09.034Z,90
2023-04-20T04:00:08.317Z,90
2023-04-20T04:01:08.710Z,90
2023-04-20T04:02:09.104Z,90
2023-04-20T04:03:08.881Z,90
2023-04-20T04:04:09.422Z,90
2023-04-20T04:06:08.496Z,90
2023-04-20T04:07:07.269Z,90
2023-04-20T04:08:08.649Z,90
2023-04-20T04:09:08.924Z,90
2023-04-20T04:10:09.172Z,90
2023-04-20T04:11:08.374Z,90
2023-04-20T04:12:08.478Z,90
2023-04-20T04:13:08.693Z,90
2023-04-20T04:14:09.122Z,90
2023-04-20T04:15:08.461Z,90
2023-04-20T04:16:08.442Z,90
2023-04-20T04:17:08.876Z,90
2023-04-20T04:18:09.225Z,90
2023-04-20T04:19:08.357Z,90
2023-04-20T04:20:08.641Z,90
2023-04-20T04:21:08.673Z,90
2023-04-20T04:22:08.982Z,90
2023-04-20T04:23:09.024Z,90
2023-04-20T04:24:08.156Z,90
2023-04-20T04:25:08.617Z,90
2023-04-20T04:26:08.794Z,90
2023-04-20T04:27:08.992Z,90
2023-04-20T04:32:08.312Z,90
2023-04-20T04:33:08.951Z,90
2023-04-20T04:34:08.642Z,90
2023-04-20T04:35:09.198Z,90
2023-04-20T04:36:08.153Z,90
2023-04-20T04:37:09.093Z,90
2023-04-20T04:38:08.440Z,90
2023-04-20T04:39:08.840Z,90
2023-04-20T04:40:09.115Z,90
2023-04-20T04:41:08.429Z,90
2023-04-20T04:42:11.167Z,90
2023-04-20T04:43:08.612Z,90
2023-04-20T04:48:12.659Z,90
2023-04-20T04:50:08.446Z,90
2023-04-20T04:51:08.623Z,90
2023-04-20T04:52:08.754Z,90
2023-04-20T04:53:09.186Z,90
2023-04-20T04:54:08.330Z,90
2023-04-20T04:55:08.273Z,90
2023-04-20T04:56:08.694Z,90
2023-04-20T04:57:08.930Z,90
2023-04-20T04:58:08.296Z,90
2023-04-20T04:59:08.531Z,90
2023-04-20T05:00:08.736Z,90
2023-04-20T05:01:08.947Z,90
2023-04-20T05:02:08.225Z,90
2023-04-20T05:03:08.963Z,90
2023-04-20T05:04:09.441Z,90
2023-04-20T05:05:09.804Z,90
2023-04-20T05:09:08.149Z,90
2023-04-20T05:10:08.431Z,90
2023-04-20T05:11:08.811Z,90
2023-04-20T05:12:09.060Z,90
2023-04-20T05:13:08.465Z,90
2023-04-20T05:14:08.553Z,90
2023-04-20T05:15:08.896Z,90
2023-04-20T05:16:09.162Z,90
2023-04-20T05:17:08.425Z,90
2023-04-20T05:18:08.804Z,90
2023-04-20T05:19:08.940Z,90
2023-04-20T05:20:08.325Z,90
2023-04-20T05:21:08.783Z,90
2023-04-20T05:27:08.283Z,89
2023-04-20T05:28:08.536Z,89
2023-04-20T05:29:08.499Z,89
2023-04-20T05:30:26.257Z,89
2023-04-20T05:32:08.875Z,89
2023-04-20T05:34:08.884Z,89
2023-04-20T05:36:08.396Z,89
2023-04-20T05:37:08.642Z,89
2023-04-20T05:38:08.918Z,89
2023-04-20T05:39:09.056Z,89
2023-04-20T05:40:08.506Z,89
2023-04-20T05:41:08.844Z,89
2023-04-20T05:42:08.955Z,89
2023-04-20T05:43:08.284Z,89
2023-04-20T05:44:08.231Z,89
2023-04-20T05:45:08.472Z,89
2023-04-20T05:48:08.303Z,89
2023-04-20T05:49:08.418Z,89
2023-04-20T05:52:08.120Z,89
2023-04-20T05:53:08.796Z,89
2023-04-20T05:54:08.556Z,89
2023-04-20T05:55:08.979Z,89
2023-04-20T05:56:08.925Z,89
2023-04-20T05:57:08.239Z,89
2023-04-20T05:58:08.379Z,89
2023-04-20T05:59:08.771Z,89
2023-04-20T06:01:08.595Z,89
2023-04-20T06:02:08.934Z,89
2023-04-20T06:03:09.817Z,89
2023-04-20T06:04:09.322Z,89
2023-04-20T06:05:09.352Z,89
2023-04-20T06:06:09.248Z,89
2023-04-20T06:07:08.325Z,89
2023-04-20T06:08:08.663Z,89
2023-04-20T06:09:09.256Z,89
2023-04-20T06:10:09.041Z,89
2023-04-20T06:11:08.207Z,89
2023-04-20T06:12:08.514Z,89
2023-04-20T06:13:08.819Z,89
2023-04-20T06:14:09.097Z,89
2023-04-20T06:15:08.383Z,89
2023-04-20T06:16:08.636Z,89
2023-04-20T06:17:08.852Z,89
2023-04-20T06:18:09.022Z,89
2023-04-20T06:19:08.120Z,89
2023-04-20T06:20:08.694Z,88
2023-04-20T06:21:08.245Z,88
2023-04-20T06:22:08.461Z,88
2023-04-20T06:23:08.800Z,88
2023-04-20T06:24:08.735Z,88
2023-04-20T06:25:09.037Z,88
2023-04-20T06:26:08.471Z,88
2023-04-20T06:27:08.779Z,88
2023-04-20T06:32:08.366Z,88
2023-04-20T06:33:10.296Z,88
2023-04-20T06:34:08.913Z,88
2023-04-20T06:35:09.126Z,88
2023-04-20T06:36:08.339Z,88
2023-04-20T06:37:08.399Z,88
2023-04-20T06:38:08.963Z,87
2023-04-20T06:39:09.078Z,87
2023-04-20T06:40:08.658Z,87
2023-04-20T06:41:08.327Z,87
2023-04-20T06:42:08.665Z,87
2023-04-20T06:43:08.134Z,87
2023-04-20T06:44:08.441Z,87
2023-04-20T06:45:08.773Z,87
2023-04-20T06:48:30.607Z,87
2023-04-20T06:49:08.219Z,87
2023-04-20T06:50:08.537Z,87
2023-04-20T06:51:08.559Z,87
2023-04-20T06:52:08.746Z,87
2023-04-20T06:53:08.850Z,87
2023-04-20T06:54:08.251Z,87
2023-04-20T06:57:08.327Z,87
2023-04-20T06:58:08.408Z,87
2023-04-20T06:59:08.709Z,87
2023-04-20T07:00:09.079Z,87
2023-04-20T07:01:08.783Z,87
2023-04-20T07:02:09.314Z,87
2023-04-20T07:03:09.770Z,87
2023-04-20T07:04:08.620Z,87
2023-04-20T07:05:08.776Z,87
2023-04-20T07:06:09.027Z,87
2023-04-20T07:07:08.096Z,87
2023-04-20T07:08:08.197Z,87
2023-04-20T07:09:08.650Z,87
2023-04-20T07:10:08.999Z,87
2023-04-20T07:11:08.265Z,87
2023-04-20T07:12:08.536Z,87
2023-04-20T07:13:08.612Z,87
2023-04-20T07:14:09.257Z,87
2023-04-20T07:15:08.218Z,87
2023-04-20T07:16:08.801Z,87
2023-04-20T07:17:08.985Z,87
2023-04-20T07:21:08.396Z,87
2023-04-20T07:22:08.583Z,87
2023-04-20T07:23:08.153Z,86
2023-04-20T07:24:08.613Z,86
2023-04-20T07:25:08.788Z,86
2023-04-20T07:26:08.998Z,87
2023-04-20T07:27:08.309Z,87
2023-04-20T07:28:08.489Z,86
2023-04-20T07:29:08.862Z,87
2023-04-20T07:30:08.072Z,87
2023-04-20T07:31:08.650Z,86
2023-04-20T07:32:08.751Z,86
2023-04-20T07:33:09.197Z,86
2023-04-20T07:34:08.181Z,86
2023-04-20T07:35:08.429Z,86
2023-04-20T07:36:08.591Z,87
2023-04-20T07:37:08.851Z,87
2023-04-20T07:38:08.057Z,87
2023-04-20T07:39:08.415Z,86
2023-04-20T07:40:08.999Z,86
2023-04-20T07:42:08.110Z,86
2023-04-20T07:43:08.523Z,86
2023-04-20T07:44:08.883Z,86
2023-04-20T07:45:08.959Z,86
2023-04-20T07:46:08.716Z,86
2023-04-20T07:47:09.483Z,86
2023-04-20T07:48:09.141Z,86
2023-04-20T07:49:08.576Z,86
2023-04-20T07:50:08.605Z,86
2023-04-20T07:51:08.734Z,86
2023-04-20T07:52:20.046Z,86
2023-04-20T07:54:08.612Z,86
2023-04-20T07:55:08.943Z,86
2023-04-20T07:56:08.833Z,86
2023-04-20T07:59:08.233Z,86
2023-04-20T08:00:08.564Z,86
2023-04-20T08:01:08.822Z,86
2023-04-20T08:02:09.264Z,86
2023-04-20T08:06:08.870Z,86
2023-04-20T08:08:07.697Z,86
2023-04-20T08:09:09.681Z,86
2023-04-20T08:10:08.354Z,86
2023-04-20T08:11:08.664Z,86
2023-04-20T08:12:08.954Z,86
2023-04-20T08:17:08.273Z,86
2023-04-20T08:18:08.556Z,86
2023-04-20T08:19:08.766Z,86
2023-04-20T08:20:08.722Z,86
2023-04-20T08:21:09.584Z,86
2023-04-20T08:22:08.322Z,86
2023-04-20T08:23:08.701Z,86
2023-04-20T08:24:08.439Z,86
2023-04-20T08:25:09.017Z,86
2023-04-20T08:26:08.578Z,86
2023-04-20T08:27:08.944Z,86
2023-04-20T08:28:29.657Z,86
2023-04-20T08:29:08.258Z,86
2023-04-20T08:30:08.752Z,86
2023-04-20T08:31:08.465Z,86
2023-04-20T08:32:08.563Z,86
2023-04-20T08:33:09.075Z,86
2023-04-20T08:34:08.296Z,86
2023-04-20T08:35:08.257Z,86
2023-04-20T08:36:08.386Z,86
2023-04-20T08:37:08.248Z,86
2023-04-20T08:38:08.678Z,86
2023-04-20T08:40:08.623Z,86
2023-04-20T08:41:08.495Z,86
2023-04-20T08:42:08.513Z,86
2023-04-20T08:43:08.964Z,86
2023-04-20T08:44:09.063Z,86
2023-04-20T08:45:08.225Z,86
2023-04-20T08:46:08.493Z,86
2023-04-20T08:47:08.864Z,86
2023-04-20T08:48:09.181Z,86
2023-04-20T08:49:09.015Z,86
2023-04-20T08:53:08.083Z,86
2023-04-20T08:54:08.507Z,86
2023-04-20T08:55:08.288Z,86
2023-04-20T08:56:08.784Z,86
2023-04-20T08:57:08.844Z,86
2023-04-20T08:58:08.186Z,86
2023-04-20T08:59:08.419Z,86
2023-04-20T09:00:09.399Z,86
2023-04-20T09:01:08.908Z,86
2023-04-20T09:02:08.560Z,86
2023-04-20T09:03:09.262Z,86
2023-04-20T09:04:09.585Z,86
2023-04-20T09:05:09.564Z,86
2023-04-20T09:06:08.306Z,86
2023-04-20T09:07:08.840Z,86
2023-04-20T09:08:08.141Z,86
2023-04-20T09:09:08.257Z,86
2023-04-20T09:10:08.712Z,86
2023-04-20T09:11:08.678Z,86
2023-04-20T09:12:09.442Z,86
2023-04-20T09:13:08.475Z,86
2023-04-20T09:14:08.810Z,86
2023-04-20T09:15:08.994Z,86
2023-04-20T09:16:08.286Z,86
2023-04-20T09:17:08.600Z,85
2023-04-20T09:18:09.020Z,85
2023-04-20T09:19:09.723Z,85
2023-04-20T09:21:08.505Z,85
2023-04-20T09:22:08.786Z,85
2023-04-20T09:23:08.972Z,85
2023-04-20T09:24:08.246Z,84
2023-04-20T09:25:08.363Z,84
2023-04-20T09:26:09.171Z,84
2023-04-20T09:27:08.155Z,84
2023-04-20T09:28:08.506Z,84
2023-04-20T09:29:08.823Z,84
2023-04-20T09:30:08.239Z,84
2023-04-20T09:31:08.776Z,84
2023-04-20T09:33:08.160Z,84
2023-04-20T09:34:08.673Z,85
2023-04-20T09:35:08.749Z,85
2023-04-20T09:36:08.845Z,84
2023-04-20T09:37:11.062Z,84
2023-04-20T09:41:08.165Z,84
2023-04-20T09:42:08.699Z,84
2023-04-20T09:43:08.927Z,84
2023-04-20T09:44:08.472Z,84
2023-04-20T09:46:09.098Z,84
2023-04-20T09:47:08.877Z,84
2023-04-20T09:48:09.105Z,84
2023-04-20T09:50:49.581Z,84
2023-04-20T09:52:09.042Z,84
2023-04-20T09:53:08.278Z,84
2023-04-20T09:54:07.576Z,84
2023-04-20T09:55:08.910Z,84
2023-04-20T09:56:08.017Z,84
2023-04-20T09:57:08.386Z,84
2023-04-20T09:58:08.480Z,84
2023-04-20T09:59:08.827Z,84
2023-04-20T10:00:09.085Z,84
2023-04-20T10:04:09.266Z,84
2023-04-20T10:08:08.498Z,84
2023-04-20T10:09:08.818Z,84
2023-04-20T10:10:08.035Z,84
2023-04-20T10:15:08.412Z,84
2023-04-20T10:16:08.195Z,84
2023-04-20T10:17:09.698Z,84
2023-04-20T10:18:09.109Z,84
2023-04-20T10:19:11.500Z,84
2023-04-20T10:24:08.167Z,83
2023-04-20T10:25:08.414Z,83
2023-04-20T10:26:08.690Z,83
2023-04-20T10:27:09.065Z,83
2023-04-20T10:28:08.005Z,83
2023-04-20T10:29:08.389Z,83
2023-04-20T10:30:08.863Z,83
2023-04-20T10:31:09.313Z,83
2023-04-20T10:32:08.189Z,83
2023-04-20T10:33:08.766Z,82
2023-04-20T10:34:08.599Z,82
2023-04-20T10:35:08.813Z,82
2023-04-20T10:40:11.806Z,82
2023-04-20T10:44:08.514Z,81
2023-04-20T10:45:08.694Z,81
2023-04-20T10:46:09.219Z,81
2023-04-20T10:47:08.338Z,81
2023-04-20T10:48:08.780Z,81
2023-04-20T10:49:08.945Z,81
2023-04-20T10:50:09.282Z,81
2023-04-20T10:51:08.390Z,81
2023-04-20T10:52:08.640Z,81
2023-04-20T10:53:08.610Z,81
2023-04-20T10:54:09.160Z,81
2023-04-20T10:58:08.721Z,80
2023-04-20T10:59:08.899Z,80
2023-04-20T11:00:08.324Z,80
2023-04-20T11:01:08.541Z,80
2023-04-20T11:02:09.013Z,80
2023-04-20T11:03:09.437Z,80
2023-04-20T11:04:08.090Z,80
2023-04-20T11:05:08.639Z,80
2023-04-20T11:06:08.698Z,80
2023-04-20T11:07:08.813Z,80
2023-04-20T11:08:09.099Z,80
2023-04-20T11:09:08.336Z,80
2023-04-20T11:10:08.568Z,80
2023-04-20T11:11:09.697Z,80
2023-04-20T11:12:08.974Z,80
2023-04-20T11:13:09.083Z,80
2023-04-20T11:14:08.473Z,80
2023-04-20T11:15:08.676Z,80
2023-04-20T11:16:08.229Z,80
2023-04-20T11:17:08.959Z,80
2023-04-20T11:18:09.223Z,79
2023-04-20T11:19:08.952Z,79
2023-04-20T11:24:08.396Z,79
2023-04-20T11:25:08.621Z,79
2023-04-20T11:26:08.089Z,78
2023-04-20T11:27:08.441Z,78
2023-04-20T11:28:08.434Z,78
2023-04-20T11:29:08.972Z,79
2023-04-20T11:30:08.466Z,79
2023-04-20T11:31:08.730Z,78
2023-04-20T11:32:09.333Z,78
2023-04-20T11:33:09.452Z,78
2023-04-20T11:34:11.260Z,78
2023-04-20T11:35:11.651Z,78
2023-04-20T11:38:08.559Z,78
2023-04-20T11:39:08.995Z,78
2023-04-20T11:40:07.994Z,78
2023-04-20T11:41:09.033Z,78
2023-04-20T11:42:08.970Z,78
2023-04-20T11:43:09.384Z,78
2023-04-20T11:44:08.201Z,78
2023-04-20T11:45:08.456Z,78
2023-04-20T11:46:08.869Z,78
2023-04-20T11:48:09.455Z,77
2023-04-20T11:49:08.169Z,77
2023-04-20T11:50:08.327Z,77
2023-04-20T11:51:08.647Z,77
2023-04-20T11:54:07.961Z,76
2023-04-20T11:55:08.560Z,77
2023-04-20T11:56:09.042Z,77
2023-04-20T11:57:08.238Z,77
2023-04-20T11:58:08.264Z,77
2023-04-20T11:59:08.866Z,76
2023-04-20T12:00:09.113Z,76
2023-04-20T12:01:09.134Z,76
2023-04-20T12:02:08.299Z,77
2023-04-20T12:05:09.423Z,76
2023-04-20T12:06:08.585Z,76
2023-04-20T12:09:08.088Z,75
2023-04-20T12:10:08.542Z,75
2023-04-20T12:11:08.762Z,75
2023-04-20T12:12:08.958Z,75
2023-04-20T12:13:09.124Z,75
2023-04-20T12:14:08.325Z,75
2023-04-20T12:15:08.673Z,75
2023-04-20T12:16:08.606Z,75
2023-04-20T12:17:08.669Z,75
2023-04-20T12:19:08.884Z,75
2023-04-20T12:20:08.169Z,75
2023-04-20T12:21:08.435Z,75
2023-04-20T12:22:08.937Z,75
2023-04-20T12:23:08.854Z,75
2023-04-20T12:24:09.075Z,75
2023-04-20T12:25:08.145Z,75
2023-04-20T12:26:08.187Z,75
2023-04-20T12:27:08.480Z,75
2023-04-20T12:28:08.637Z,75
2023-04-20T12:29:08.963Z,75
2023-04-20T12:30:08.480Z,75
2023-04-20T12:31:08.788Z,75
2023-04-20T12:32:08.966Z,75
2023-04-20T12:33:09.286Z,75
2023-04-20T12:34:08.167Z,75
2023-04-20T12:35:08.586Z,75
2023-04-20T12:36:08.679Z,75
2023-04-20T12:40:09.142Z,75
2023-04-20T12:41:08.526Z,75
2023-04-20T12:42:08.930Z,75
2023-04-20T12:43:08.192Z,75
2023-04-20T12:44:15.041Z,75
2023-04-20T12:45:08.782Z,75
2023-04-20T12:46:09.115Z,75
2023-04-20T12:47:08.626Z,75
2023-04-20T12:48:08.871Z,75
2023-04-20T12:49:08.863Z,75
2023-04-20T12:50:07.990Z,75
2023-04-20T12:51:08.412Z,75
2023-04-20T12:52:11.208Z,74
2023-04-20T12:57:08.143Z,74
2023-04-20T12:58:08.424Z,74
2023-04-20T12:59:08.666Z,74
2023-04-20T13:00:09.143Z,74
2023-04-20T13:01:08.684Z,74
2023-04-20T13:02:09.310Z,74
2023-04-20T13:03:10.096Z,74
2023-04-20T13:04:09.122Z,74
2023-04-20T13:08:08.180Z,74
2023-04-20T13:09:08.313Z,74
2023-04-20T13:10:08.648Z,74
2023-04-20T13:11:08.355Z,74
2023-04-20T13:12:08.199Z,74
2023-04-20T13:13:08.639Z,74
2023-04-20T13:14:08.833Z,74
2023-04-20T13:15:08.211Z,74
2023-04-20T13:16:08.348Z,74
2023-04-20T13:17:08.727Z,74
2023-04-20T13:18:08.927Z,74
2023-04-20T13:19:09.097Z,74
2023-04-20T13:21:08.397Z,74
2023-04-20T13:22:07.314Z,74
2023-04-20T13:23:08.490Z,74
2023-04-20T13:24:08.761Z,74
2023-04-20T13:25:09.021Z,74
2023-04-20T13:26:08.457Z,74
2023-04-20T13:27:08.824Z,74
2023-04-20T13:28:09.118Z,75
2023-04-20T13:29:08.110Z,75
2023-04-20T13:30:08.445Z,74
2023-04-20T13:31:08.274Z,74
2023-04-20T13:34:08.150Z,74
2023-04-20T13:35:08.789Z,74
2023-04-20T13:36:09.021Z,74
2023-04-20T13:38:08.400Z,74
2023-04-20T13:39:08.641Z,74
2023-04-20T13:40:08.768Z,74
2023-04-20T13:41:09.124Z,74
2023-04-20T13:42:08.066Z,74
2023-04-20T13:43:08.526Z,73
2023-04-20T13:44:08.904Z,73
2023-04-20T13:45:09.202Z,73
2023-04-20T13:48:09.079Z,73
2023-04-20T13:49:08.196Z,73
2023-04-20T13:50:08.671Z,73
2023-04-20T13:51:08.944Z,73
2023-04-20T13:52:08.394Z,73
2023-04-20T13:53:09.278Z,73
2023-04-20T13:54:08.569Z,73
2023-04-20T13:55:09.083Z,73
2023-04-20T13:56:08.005Z,73
2023-04-20T13:57:08.448Z,73
2023-04-20T13:58:08.765Z,73
2023-04-20T13:59:08.809Z,73
2023-04-20T14:00:09.590Z,73
2023-04-20T14:01:08.529Z,72
2023-04-20T14:02:08.993Z,72
2023-04-20T14:03:08.618Z,72
2023-04-20T14:04:08.936Z,72
2023-04-20T14:08:08.321Z,72
2023-04-20T14:09:08.632Z,72
2023-04-20T14:10:09.080Z,72
2023-04-20T14:11:08.843Z,72
2023-04-20T14:12:08.238Z,72
2023-04-20T14:13:08.384Z,72
2023-04-20T14:14:08.646Z,72
2023-04-20T14:15:09.058Z,72
2023-04-20T14:16:08.669Z,72
2023-04-20T14:20:08.448Z,72
2023-04-20T14:21:08.443Z,72
2023-04-20T14:22:08.713Z,72
2023-04-20T14:23:11.788Z,72
2023-04-20T14:24:08.869Z,72
2023-04-20T14:25:08.336Z,72
2023-04-20T14:26:08.582Z,72
2023-04-20T14:27:08.853Z,72
2023-04-20T14:28:08.260Z,72
2023-04-20T14:29:08.538Z,73
2023-04-20T14:30:08.878Z,73
2023-04-20T14:31:08.987Z,73
2023-04-20T14:32:09.002Z,73
2023-04-20T14:33:08.567Z,72
2023-04-20T14:34:08.576Z,72
2023-04-20T14:35:11.588Z,72
2023-04-20T14:39:08.261Z,72
2023-04-20T14:40:08.882Z,72
2023-04-20T14:41:08.666Z,72
2023-04-20T14:42:08.329Z,72
2023-04-20T14:43:08.676Z,72
2023-04-20T14:44:08.777Z,72
2023-04-20T14:45:08.233Z,72
2023-04-20T14:46:08.794Z,72
2023-04-20T14:47:08.881Z,72
2023-04-20T14:49:08.082Z,71
2023-04-20T14:50:08.528Z,71
2023-04-20T14:51:08.747Z,72
2023-04-20T14:52:08.944Z,72
2023-04-20T14:54:08.262Z,72
2023-04-20T14:55:08.424Z,72
2023-04-20T14:56:09.029Z,72
2023-04-20T15:02:08.634Z,72
2023-04-20T15:03:09.688Z,72
2023-04-20T15:04:09.721Z,72
2023-04-20T15:05:13.501Z,72
2023-04-20T15:07:08.489Z,72
2023-04-20T15:08:08.611Z,72
2023-04-20T15:09:08.995Z,72
2023-04-20T15:10:08.471Z,72
2023-04-20T15:15:08.359Z,72
2023-04-20T15:16:08.949Z,72
2023-04-20T15:17:09.096Z,73
2023-04-20T15:21:08.409Z,72
2023-04-20T15:22:08.875Z,72
2023-04-20T15:23:09.129Z,72
2023-04-20T15:24:08.303Z,72
2023-04-20T15:25:08.606Z,72
2023-04-20T15:26:08.899Z,73
2023-04-20T15:27:11.504Z,73
2023-04-20T15:28:08.068Z,73
2023-04-20T15:29:08.520Z,73
2023-04-20T15:30:08.874Z,73
2023-04-20T15:33:11.606Z,72
2023-04-20T15:34:08.933Z,72
2023-04-20T15:37:08.587Z,73
2023-04-20T15:38:08.847Z,73
2023-04-20T15:39:08.189Z,73
2023-04-20T15:40:08.283Z,73
2023-04-20T15:45:08.195Z,73
2023-04-20T15:46:08.622Z,73
2023-04-20T15:47:08.384Z,73
2023-04-20T15:48:09.062Z,72
2023-04-20T15:50:08.342Z,72
2023-04-20T15:51:08.615Z,73
2023-04-20T15:52:08.815Z,73
2023-04-20T15:53:08.959Z,73
2023-04-20T15:54:08.174Z,73
2023-04-20T15:55:08.608Z,73
2023-04-20T15:56:08.625Z,73
2023-04-20T15:57:09.009Z,73
2023-04-20T15:58:07.892Z,73
2023-04-20T15:59:08.328Z,73
2023-04-20T16:00:08.645Z,73
2023-04-20T16:01:08.996Z,73
2023-04-20T16:02:08.471Z,73
2023-04-20T16:03:09.189Z,73
2023-04-20T16:04:09.735Z,73
2023-04-20T16:09:08.308Z,74
2023-04-20T16:10:08.716Z,74
2023-04-20T16:11:08.862Z,74
2023-04-20T16:12:09.029Z,74
2023-04-20T16:13:08.357Z,74
2023-04-20T16:14:08.541Z,74
2023-04-20T16:15:08.868Z,74
2023-04-20T16:16:08.710Z,74
2023-04-20T16:17:09.200Z,74
2023-04-20T16:18:08.555Z,74
2023-04-20T16:19:08.688Z,74
2023-04-20T16:20:08.706Z,74
2023-04-20T16:21:08.101Z,74
2023-04-20T16:22:08.374Z,74
2023-04-20T16:23:08.785Z,74
2023-04-20T16:24:09.254Z,74
2023-04-20T16:25:08.135Z,74
2023-04-20T16:26:08.876Z,74
2023-04-20T16:27:07.466Z,74
2023-04-20T16:28:08.503Z,74
2023-04-20T16:29:09.173Z,75
2023-04-20T16:30:08.338Z,74
2023-04-20T16:31:09.467Z,74
2023-04-20T16:32:08.742Z,74
2023-04-20T16:33:08.877Z,75
2023-04-20T16:38:11.835Z,74
2023-04-20T16:40:08.665Z,75
2023-04-20T16:41:08.679Z,75
2023-04-20T16:42:08.776Z,75
2023-04-20T16:43:08.320Z,75
2023-04-20T16:44:08.542Z,75
2023-04-20T16:45:08.995Z,75
2023-04-20T16:48:08.536Z,75
2023-04-20T16:49:08.768Z,75
2023-04-20T16:50:09.070Z,75
2023-04-20T16:53:08.055Z,75
2023-04-20T16:54:08.281Z,75
2023-04-20T16:55:08.502Z,75
2023-04-20T16:56:10.237Z,75
2023-04-20T16:57:08.987Z,75
2023-04-20T16:58:08.388Z,76
2023-04-20T16:59:08.698Z,76
2023-04-20T17:00:08.901Z,76
2023-04-20T17:01:08.380Z,76
2023-04-20T17:02:08.763Z,76
2023-04-20T17:03:09.219Z,76
2023-04-20T17:04:09.332Z,76
2023-04-20T17:05:08.750Z,76
2023-04-20T17:06:09.014Z,76
2023-04-20T17:10:08.320Z,76
2023-04-20T17:11:08.058Z,76
2023-04-20T17:12:08.470Z,76
2023-04-20T17:13:08.693Z,76
2023-04-20T17:14:08.901Z,76
2023-04-20T17:15:08.340Z,76
2023-04-20T17:16:08.327Z,76
2023-04-20T17:17:08.874Z,76
2023-04-20T17:18:09.138Z,76
2023-04-20T17:20:08.310Z,76
2023-04-20T17:21:08.442Z,76
2023-04-20T17:22:08.527Z,77
2023-04-20T17:23:08.832Z,77
2023-04-20T17:25:10.223Z,77
2023-04-20T17:26:08.353Z,77
2023-04-20T17:27:08.721Z,77
2023-04-20T17:28:08.904Z,77
2023-04-20T17:32:08.204Z,77
2023-04-20T17:33:08.369Z,77
2023-04-20T17:34:08.585Z,78
2023-04-20T17:35:09.346Z,78
2023-04-20T17:36:08.156Z,78
2023-04-20T17:37:08.447Z,78
2023-04-20T17:38:08.726Z,78
2023-04-20T17:39:08.930Z,78
2023-04-20T17:40:08.471Z,78
2023-04-20T17:41:08.753Z,78
2023-04-20T17:42:09.190Z,78
2023-04-20T17:43:08.416Z,78
2023-04-20T17:44:10.993Z,78
2023-04-20T17:45:08.991Z,78